Time;durP1;ratioP1;P1;durP2;ratioP2;P2;SDS_P1;SDS_P2;PMS_P1;PMS_P2;Temp;Humidity;BMP_temperature;BMP_pressure;BME280_temperature;BME280_humidity;BME280_pressure;Samples;Min_cycle;Max_cycle;Signal;HPM_P1;HPM_P2
2021/09/16 00:00:04;;;;;;;16.83;11.35;;;;;;;21.70;61.76;99758.09;4914870;28;96891;-78
2021/09/16 00:02:37;;;;;;;12.40;11.18;;;;;;;21.60;61.79;99749.22;4912067;28;98281;-77
2021/09/16 00:05:03;;;;;;;13.52;11.07;;;;;;;21.63;62.10;99757.78;4915013;28;97814;-77
2021/09/16 00:07:28;;;;;;;12.88;11.55;;;;;;;21.69;62.19;99757.25;4916559;28;96481;-78
2021/09/16 00:09:54;;;;;;;14.32;11.50;;;;;;;21.68;62.02;99749.38;4915411;28;97018;-77
2021/09/16 00:12:19;;;;;;;11.50;10.32;;;;;;;21.66;62.08;99737.97;4914729;28;100828;-77
2021/09/16 00:14:45;;;;;;;12.48;11.18;;;;;;;21.71;62.16;99746.44;4931104;28;97589;-77
2021/09/16 00:17:10;;;;;;;13.57;10.88;;;;;;;21.77;61.92;99745.88;4914425;28;96579;-78
2021/09/16 00:19:36;;;;;;;14.48;12.25;;;;;;;21.81;62.03;99744.59;4931018;28;96569;-78
2021/09/16 00:22:01;;;;;;;12.98;10.77;;;;;;;21.64;62.15;99738.13;4914905;28;97699;-77
2021/09/16 00:24:27;;;;;;;16.75;11.32;;;;;;;;;;4931105;28;97403;-78
2021/09/16 00:26:52;;;;;;;14.60;10.98;;;;;;;;;;4914853;28;96486;-78
2021/09/16 00:29:18;;;;;;;12.27;11.05;;;;;;;21.74;62.30;99751.50;4898969;28;96491;-77
2021/09/16 00:31:43;;;;;;;17.05;12.10;;;;;;;21.77;62.23;99761.91;4898431;28;101157;-78
2021/09/16 00:34:09;;;;;;;14.50;12.65;;;;;;;21.52;63.05;99751.72;4914762;28;99026;-77
2021/09/16 00:36:35;;;;;;;15.95;12.30;;;;;;;21.42;63.39;99751.69;4931045;28;96628;-78
2021/09/16 00:39:00;;;;;;;14.82;12.07;;;;;;;21.54;62.99;99755.94;4914801;28;96868;-77
2021/09/16 00:41:28;;;;;;;16.50;11.90;;;;;;;21.54;63.05;99761.28;4898037;28;97777;-77
2021/09/16 00:43:55;;;;;;;13.05;11.05;;;;;;;21.48;63.33;99756.50;4914221;28;101419;-78
2021/09/16 00:46:20;;;;;;;15.85;12.25;;;;;;;21.39;63.67;99766.16;4930765;28;96627;-77
2021/09/16 00:48:46;;;;;;;13.80;12.10;;;;;;;21.39;63.64;99754.63;4914794;28;96881;-78
2021/09/16 00:51:12;;;;;;;13.40;11.93;;;;;;;21.44;63.53;99768.44;4914689;28;97429;-78
2021/09/16 00:53:38;;;;;;;14.38;12.85;;;;;;;21.24;64.13;99756.78;4930586;28;97480;-77
2021/09/16 00:56:04;;;;;;;15.40;11.90;;;;;;;21.27;64.20;99771.69;4898509;28;96781;-78
2021/09/16 00:58:37;;;;;;;16.58;12.02;;;;;;;21.34;63.92;99770.16;4914959;28;96964;-77
2021/09/16 01:01:02;;;;;;;14.63;13.02;;;;;;;21.26;64.12;99765.50;4919269;28;97955;-77
2021/09/16 01:03:28;;;;;;;14.00;11.60;;;;;;;21.38;63.95;99769.81;4919281;28;97442;-77
2021/09/16 01:05:53;;;;;;;15.23;11.93;;;;;;;21.46;63.67;99769.13;4917289;28;96603;-78
2021/09/16 01:08:19;;;;;;;13.05;11.40;;;;;;;21.45;63.83;99764.78;4918231;28;96774;-77
2021/09/16 01:10:45;;;;;;;14.30;11.80;;;;;;;21.35;63.99;99778.06;4917826;28;97630;-77
2021/09/16 01:13:11;;;;;;;12.80;11.60;;;;;;;21.33;64.14;99765.81;4933904;28;97421;-78
2021/09/16 01:15:37;;;;;;;12.55;11.35;;;;;;;21.30;64.00;99758.09;4917947;28;96585;-77
2021/09/16 01:18:03;;;;;;;13.77;12.35;;;;;;;21.42;63.85;99765.03;4919401;28;96853;-78
2021/09/16 01:20:29;;;;;;;12.95;11.65;;;;;;;21.39;64.05;99767.97;4933643;28;98230;-77
2021/09/16 01:22:55;;;;;;;15.43;12.27;;;;;;;21.33;63.93;99765.81;4934111;28;97922;-77
2021/09/16 01:25:28;;;;;;;13.52;11.18;;;;;;;21.40;63.87;99772.34;4933777;28;96611;-77
2021/09/16 01:27:55;;;;;;;12.35;11.05;;;;;;;21.36;63.94;99771.75;4933991;28;96752;-77
2021/09/16 01:30:21;;;;;;;12.05;10.73;;;;;;;21.30;64.36;99774.09;4932949;28;97619;-77
2021/09/16 01:32:48;;;;;;;14.40;11.68;;;;;;;21.41;63.94;99769.53;4933337;28;100902;-77
2021/09/16 01:35:13;;;;;;;12.25;10.80;;;;;;;21.51;63.65;99761.56;4933552;28;96912;-78
2021/09/16 01:37:39;;;;;;;14.00;12.10;;;;;;;21.52;63.62;99757.88;4934100;28;96843;-78
2021/09/16 01:40:05;;;;;;;14.40;11.30;;;;;;;21.51;63.66;99766.91;4933573;28;97445;-78
2021/09/16 01:42:31;;;;;;;13.68;12.30;;;;;;;21.51;63.58;99758.03;4933395;28;97841;-77
2021/09/16 01:44:56;;;;;;;14.45;11.82;;;;;;;21.43;63.92;99754.22;4917552;28;96595;-78
2021/09/16 01:47:22;;;;;;;13.70;12.23;;;;;;;21.36;64.03;99766.41;4917595;28;96918;-75
2021/09/16 01:49:47;;;;;;;12.35;11.10;;;;;;;21.37;64.09;99760.09;4900965;28;97521;-75
2021/09/16 01:52:13;;;;;;;12.73;11.18;;;;;;;21.50;63.87;99767.00;4918438;28;98176;-75
2021/09/16 01:54:38;;;;;;;13.50;11.07;;;;;;;21.36;64.08;99752.19;4916555;28;96530;-78
2021/09/16 01:57:04;;;;;;;12.63;11.32;;;;;;;21.39;64.17;99759.97;4901001;28;96894;-78
2021/09/16 01:59:30;;;;;;;11.82;10.27;;;;;;;21.42;64.14;99759.69;4916650;28;98019;-78
2021/09/16 02:01:55;;;;;;;14.15;11.02;;;;;;;21.51;64.07;99764.22;4900757;28;101335;-78
2021/09/16 02:04:20;;;;;;;16.38;12.13;;;;;;;21.38;63.94;99752.94;4933357;28;96516;-78
2021/09/16 02:06:46;;;;;;;12.45;10.80;;;;;;;21.31;64.47;99757.94;4918434;28;96868;-78
2021/09/16 02:09:11;;;;;;;11.55;10.52;;;;;;;21.40;64.34;99765.16;4918174;28;97723;-78
2021/09/16 02:11:37;;;;;;;11.95;10.68;;;;;;;21.32;64.59;99748.09;4917161;28;97362;-78
2021/09/16 02:14:02;;;;;;;11.80;10.48;;;;;;;21.51;64.01;99750.03;4917191;28;96555;-78
2021/09/16 02:16:28;;;;;;;11.55;10.55;;;;;;;21.38;64.65;99764.47;4916684;28;96728;-78
2021/09/16 02:18:53;;;;;;;12.55;11.18;;;;;;;21.58;63.95;99753.84;4916202;28;100748;-78
2021/09/16 02:21:19;;;;;;;13.18;11.57;;;;;;;21.48;64.34;99749.31;4916693;28;97473;-78
2021/09/16 02:23:45;;;;;;;12.05;10.95;;;;;;;21.37;64.56;99738.75;4933257;28;96558;-78
2021/09/16 02:26:11;;;;;;;13.40;10.25;;;;;;;21.62;64.32;99748.09;4916892;28;96593;-78
2021/09/16 02:28:36;;;;;;;12.02;10.90;;;;;;;21.53;64.31;99748.09;4916315;28;101248;-78
2021/09/16 02:31:02;;;;;;;13.23;11.60;;;;;;;21.49;64.86;99750.16;4933219;28;97331;-78
2021/09/16 02:33:27;;;;;;;13.65;11.60;;;;;;;21.48;65.24;99753.81;4918119;28;96498;-78
2021/09/16 02:35:53;;;;;;;13.98;12.68;;;;;;;21.36;65.61;99752.19;4933488;28;96773;-78
2021/09/16 02:38:20;;;;;;;12.63;11.38;;;;;;;21.34;65.81;99747.00;4917817;28;97616;-78
2021/09/16 02:40:45;;;;;;;12.70;11.52;;;;;;;21.30;65.89;99750.91;4932291;28;101594;-78
2021/09/16 02:43:11;;;;;;;12.13;10.93;;;;;;;21.30;66.41;99763.41;4916037;28;96744;-78
2021/09/16 02:45:36;;;;;;;16.40;11.77;;;;;;;21.35;66.30;99753.16;4917699;28;96782;-78
2021/09/16 02:48:02;;;;;;;12.93;11.65;;;;;;;21.35;66.39;99755.84;4932284;28;98273;-78
2021/09/16 02:50:27;;;;;;;13.30;12.00;;;;;;;21.16;66.65;99756.63;4917376;28;97232;-78
2021/09/16 02:52:53;;;;;;;14.43;12.27;;;;;;;21.14;66.93;99761.22;4916333;28;96573;-78
2021/09/16 02:55:18;;;;;;;13.18;11.95;;;;;;;21.21;67.11;99762.41;4917807;28;96789;-78
2021/09/16 02:57:45;;;;;;;13.60;12.30;;;;;;;21.24;66.86;99770.13;4916170;28;97516;-78
2021/09/16 03:00:11;;;;;;;13.82;12.32;;;;;;;21.26;66.91;99773.50;4932272;28;97990;-78
2021/09/16 03:02:37;;;;;;;12.80;11.70;;;;;;;21.20;67.01;99766.88;4932313;28;96541;-78
2021/09/16 03:05:02;;;;;;;13.27;11.52;;;;;;;21.10;67.27;99766.00;4916072;28;96826;-78
2021/09/16 03:07:28;;;;;;;12.82;11.65;;;;;;;21.13;67.41;99768.41;4915257;28;99000;-78
2021/09/16 03:09:53;;;;;;;12.52;11.40;;;;;;;20.98;68.19;99751.91;4932140;28;97432;-78
2021/09/16 03:12:19;;;;;;;14.20;12.05;;;;;;;21.04;67.94;99753.19;4932541;28;96624;-78
2021/09/16 03:14:44;;;;;;;17.02;12.88;;;;;;;21.06;68.60;99761.03;4917413;28;96838;-78
2021/09/16 03:17:09;;;;;;;14.15;12.10;;;;;;;21.00;68.75;99760.63;4931945;28;98080;-78
2021/09/16 03:19:35;;;;;;;13.40;12.05;;;;;;;20.99;69.02;99760.75;4917364;28;97356;-78
2021/09/16 03:22:00;;;;;;;14.15;12.73;;;;;;;21.05;68.94;99765.53;4915274;28;96628;-78
2021/09/16 03:24:26;;;;;;;12.90;11.50;;;;;;;21.00;69.23;99757.09;4916393;28;96883;-78
2021/09/16 03:26:53;;;;;;;13.25;11.75;;;;;;;21.02;69.25;99768.47;4931799;28;97927;-78
2021/09/16 03:29:18;;;;;;;14.80;13.30;;;;;;;21.09;69.13;99766.97;4917012;28;97476;-78
2021/09/16 03:31:44;;;;;;;14.73;13.23;;;;;;;21.05;68.96;99772.72;4915115;28;96578;-78
2021/09/16 03:34:09;;;;;;;16.58;12.77;;;;;;;21.24;68.06;99772.81;4917209;28;96766;-78
2021/09/16 03:36:35;;;;;;;14.90;12.35;;;;;;;21.02;68.09;99769.31;4916699;28;97434;-78
2021/09/16 03:39:00;;;;;;;17.42;12.52;;;;;;;21.12;68.04;99777.41;4931699;28;97991;-78
2021/09/16 03:41:26;;;;;;;13.45;11.90;;;;;;;21.07;68.04;99770.75;4899513;28;96678;-78
2021/09/16 03:43:51;;;;;;;14.57;13.13;;;;;;;21.15;67.83;99774.44;4917119;28;96740;-78
2021/09/16 03:46:17;;;;;;;13.68;12.23;;;;;;;21.21;67.43;99775.75;4931468;28;97668;-78
2021/09/16 03:48:42;;;;;;;15.77;11.80;;;;;;;21.07;67.91;99776.94;4931855;28;99173;-78
2021/09/16 03:51:07;;;;;;;13.30;11.95;;;;;;;21.08;68.13;99769.78;4915515;28;96623;-78
2021/09/16 03:53:33;;;;;;;12.95;11.35;;;;;;;21.12;67.89;99773.84;4931808;28;96886;-78
2021/09/16 03:55:59;;;;;;;13.57;12.18;;;;;;;21.06;67.86;99767.25;4930853;28;97567;-78
2021/09/16 03:58:25;;;;;;;12.77;11.60;;;;;;;21.09;67.82;99772.31;4914519;28;99110;-78
2021/09/16 04:00:51;;;;;;;13.23;11.93;;;;;;;21.10;67.78;99771.34;4916974;28;96693;-78
2021/09/16 04:03:16;;;;;;;16.67;12.35;;;;;;;21.06;67.90;99767.25;4915439;28;96802;-78
2021/09/16 04:05:42;;;;;;;14.43;12.05;;;;;;;21.15;67.55;99779.78;4916324;28;97420;-78
2021/09/16 04:08:07;;;;;;;13.10;11.32;;;;;;;21.15;67.29;99777.13;4883084;28;101327;-78
2021/09/16 04:10:34;;;;;;;13.68;10.80;;;;;;;21.17;67.27;99777.81;4931091;28;96635;-78
2021/09/16 04:12:59;;;;;;;11.90;10.68;;;;;;;21.20;67.11;99774.88;4899554;28;96815;-78
2021/09/16 04:15:25;;;;;;;12.52;10.52;;;;;;;21.23;66.71;99777.31;4931141;28;97422;-78
2021/09/16 04:17:51;;;;;;;12.40;11.20;;;;;;;21.18;66.82;99779.53;4914753;28;101070;-78
2021/09/16 04:20:17;;;;;;;15.43;12.05;;;;;;;21.21;66.78;99786.41;4930972;28;96742;-78
2021/09/16 04:22:42;;;;;;;20.83;11.95;;;;;;;21.11;66.80;99774.84;4931090;28;96847;-78
2021/09/16 04:25:08;;;;;;;13.73;11.50;;;;;;;21.28;66.26;99786.72;4914339;28;100344;-78
2021/09/16 04:27:34;;;;;;;19.85;12.50;;;;;;;21.30;66.63;99782.94;4915830;28;97377;-78
2021/09/16 04:29:59;;;;;;;15.05;12.63;;;;;;;21.31;66.41;99786.47;4931637;28;96600;-78
2021/09/16 04:32:25;;;;;;;13.40;11.60;;;;;;;21.28;66.50;99782.22;4931122;28;96797;-78
2021/09/16 04:34:50;;;;;;;14.00;12.60;;;;;;;21.24;66.43;99775.47;4930376;28;97384;-78
2021/09/16 04:37:17;;;;;;;15.20;12.48;;;;;;;21.26;66.53;99786.84;4914958;28;98061;-76
2021/09/16 04:39:42;;;;;;;19.92;13.50;;;;;;;21.18;66.90;99784.88;4930668;28;96533;-76
2021/09/16 04:42:08;;;;;;;19.67;13.45;;;;;;;21.18;66.38;99771.53;4931082;28;96878;-76
2021/09/16 04:44:33;;;;;;;15.57;12.70;;;;;;;21.07;66.97;99776.09;4930100;28;97484;-76
2021/09/16 04:46:59;;;;;;;15.10;12.38;;;;;;;21.16;66.62;99784.13;4930700;28;97793;-76
2021/09/16 04:49:25;;;;;;;13.80;12.35;;;;;;;21.21;66.69;99794.44;4931081;28;96623;-79
2021/09/16 04:51:51;;;;;;;16.33;13.48;;;;;;;21.20;66.60;99790.03;4914739;28;96868;-79
2021/09/16 04:54:16;;;;;;;14.90;12.95;;;;;;;21.05;67.37;99794.88;4930550;28;97644;-79
2021/09/16 04:56:42;;;;;;;20.25;13.52;;;;;;;21.21;67.00;99799.78;4929977;28;101565;-78
2021/09/16 04:59:07;;;;;;;15.18;13.05;;;;;;;21.18;67.22;99794.69;4929990;28;96823;-77
2021/09/16 05:01:33;;;;;;;16.17;14.10;;;;;;;21.12;67.32;99795.19;4916095;28;96772;-78
2021/09/16 05:03:58;;;;;;;16.27;13.90;;;;;;;21.16;67.38;99797.47;4929513;28;101359;-78
2021/09/16 05:06:24;;;;;;;19.27;12.95;;;;;;;21.28;67.04;99803.59;4929789;28;98136;-78
2021/09/16 05:08:50;;;;;;;17.27;12.88;;;;;;;21.28;67.09;99797.41;4929829;28;96615;-80
2021/09/16 05:11:15;;;;;;;14.55;13.05;;;;;;;21.27;67.10;99795.72;4929632;28;97105;-79
2021/09/16 05:13:41;;;;;;;19.63;12.90;;;;;;;21.24;67.06;99787.00;4929887;28;98406;-78
2021/09/16 05:16:06;;;;;;;19.15;11.82;;;;;;;21.32;66.86;99786.34;4913713;28;97645;-79
2021/09/16 05:18:32;;;;;;;19.83;13.27;;;;;;;21.38;66.77;99796.50;4913750;28;96662;-78
2021/09/16 05:20:57;;;;;;;19.40;12.80;;;;;;;21.40;67.11;99796.34;4913671;28;96834;-78
2021/09/16 05:23:23;;;;;;;25.38;13.93;;;;;;;21.45;66.37;99789.63;4913464;28;101444;-79
2021/09/16 05:25:48;;;;;;;22.25;14.02;;;;;;;21.44;66.49;99793.28;4914955;28;97191;-79
2021/09/16 05:28:14;;;;;;;20.95;14.25;;;;;;;21.59;66.00;99792.94;4913991;28;96735;-78
2021/09/16 05:30:39;;;;;;;20.05;14.10;;;;;;;21.63;65.84;99800.53;4929371;28;96966;-78
2021/09/16 05:33:09;;;;;;;20.17;14.93;;;;;;;21.72;65.45;99800.69;4914247;28;97486;-78
2021/09/16 05:35:38;;;;;;;23.98;14.52;;;;;;;21.67;65.50;99798.41;4913667;28;97539;-79
2021/09/16 05:38:05;;;;;;;18.77;13.63;;;;;;;21.76;65.40;99802.97;4897391;28;96606;-79
2021/09/16 05:40:30;;;;;;;19.80;14.80;;;;;;;21.84;65.40;99805.78;4913306;28;97025;-78
2021/09/16 05:42:56;;;;;;;20.80;13.30;;;;;;;21.98;64.68;99798.34;4929624;28;98056;-78
2021/09/16 05:45:21;;;;;;;19.88;15.10;;;;;;;22.07;64.62;99797.53;4914231;28;101177;-78
2021/09/16 05:47:47;;;;;;;21.00;14.57;;;;;;;22.21;64.13;99791.81;4916329;28;96536;-79
2021/09/16 05:50:12;;;;;;;20.70;14.10;;;;;;;22.25;63.79;99793.25;4916512;28;96924;-78
2021/09/16 05:52:38;;;;;;;17.80;14.15;;;;;;;22.35;63.65;99799.41;4915866;28;100559;-84
2021/09/16 05:55:05;;;;;;;28.33;15.05;;;;;;;22.44;63.59;99796.88;4916191;28;101305;-84
2021/09/16 05:57:31;;;;;;;18.42;13.52;;;;;;;22.45;63.20;99801.25;4932354;28;96985;-82
2021/09/16 05:59:56;;;;;;;14.23;12.77;;;;;;;22.50;63.08;99809.69;4900480;28;96935;-75
2021/09/16 06:02:22;;;;;;;15.00;12.75;;;;;;;22.28;63.83;99808.13;4933164;28;97527;-75
2021/09/16 06:04:47;;;;;;;23.92;15.30;;;;;;;22.09;64.18;99784.88;4916242;28;101095;-75
2021/09/16 06:07:13;;;;;;;18.52;14.32;;;;;;;22.10;64.52;99802.59;4932777;28;96614;-76
2021/09/16 06:09:38;;;;;;;17.88;14.60;;;;;;;21.93;65.01;99804.09;4916452;28;96832;-76
2021/09/16 06:12:08;;;;;;;16.45;14.00;;;;;;;21.83;65.25;99808.59;4916104;28;97594;-73
2021/09/16 06:14:33;;;;;;;18.83;13.75;;;;;;;21.76;65.54;99794.94;4915732;28;101733;-73
2021/09/16 06:17:00;;;;;;;15.48;13.55;;;;;;;21.75;65.66;99808.44;4932461;28;96579;-73
2021/09/16 06:19:25;;;;;;;18.67;14.50;;;;;;;21.79;65.53;99801.84;4932670;28;96814;-74
2021/09/16 06:21:51;;;;;;;20.40;15.23;;;;;;;21.79;65.80;99804.53;4915026;28;100930;-74
2021/09/16 06:24:16;;;;;;;29.17;15.02;;;;;;;21.75;65.67;99805.75;4917103;28;97428;-74
2021/09/16 06:26:42;;;;;;;17.77;14.30;;;;;;;21.73;65.85;99805.03;4916332;28;96635;-75
2021/09/16 06:29:08;;;;;;;20.17;13.48;;;;;;;21.67;66.10;99814.44;4932397;28;96833;-75
2021/09/16 06:31:33;;;;;;;18.92;13.52;;;;;;;21.68;66.13;99810.81;4899516;28;97918;-75
2021/09/16 06:33:59;;;;;;;18.75;13.82;;;;;;;21.80;65.82;99811.53;4917213;28;97424;-77
2021/09/16 06:36:24;;;;;;;15.65;13.70;;;;;;;21.72;65.90;99812.22;4915950;28;96554;-78
2021/09/16 06:38:50;;;;;;;16.42;13.90;;;;;;;21.75;65.94;99819.13;4932468;28;96775;-82
2021/09/16 06:41:15;;;;;;;20.70;13.45;;;;;;;21.80;66.05;99806.19;4915960;28;98073;-79
2021/09/16 06:43:41;;;;;;;16.45;14.38;;;;;;;21.78;66.11;99810.81;4917464;28;98077;-78
2021/09/16 06:46:06;;;;;;;18.05;14.05;;;;;;;21.75;65.86;99806.59;4932175;28;96661;-80
2021/09/16 06:48:32;;;;;;;15.43;13.45;;;;;;;21.85;66.03;99820.00;4916130;28;96968;-80
2021/09/16 06:50:57;;;;;;;16.00;14.00;;;;;;;21.85;66.09;99812.00;4932047;28;97676;-80
2021/09/16 06:53:23;;;;;;;17.70;13.55;;;;;;;21.73;66.46;99834.41;4931974;28;97638;-84
2021/09/16 06:55:48;;;;;;;22.05;13.60;;;;;;;21.85;66.38;99834.19;4916119;28;96500;-77
2021/09/16 06:58:14;;;;;;;15.23;13.77;;;;;;;21.98;66.09;99830.44;4916837;28;96886;-77
2021/09/16 07:00:40;;;;;;;17.63;12.88;;;;;;;22.06;65.93;99828.75;4932181;28;97602;-77
2021/09/16 07:03:05;;;;;;;21.08;14.70;;;;;;;22.23;65.66;99831.78;4932377;28;97593;-76
2021/09/16 07:05:31;;;;;;;16.45;13.18;;;;;;;22.33;65.40;99835.28;4932208;28;96607;-76
2021/09/16 07:07:56;;;;;;;16.10;12.98;;;;;;;22.36;65.12;99838.53;4916017;28;96863;-75
2021/09/16 07:10:22;;;;;;;17.25;14.15;;;;;;;22.44;65.08;99835.16;4914824;28;101391;-77
2021/09/16 07:12:47;;;;;;;16.55;13.30;;;;;;;22.63;64.75;99837.00;4899335;28;101079;-76
2021/09/16 07:15:13;;;;;;;24.23;15.20;;;;;;;22.81;64.09;99831.78;4915674;28;96562;-79
2021/09/16 07:17:38;;;;;;;21.58;14.07;;;;;;;23.05;63.64;99831.34;4931250;28;96963;-78
2021/09/16 07:20:05;;;;;;;12.82;11.60;;;;;;;23.34;62.61;99833.94;4931495;28;98084;-78
2021/09/16 07:22:30;;;;;;;15.73;12.73;;;;;;;23.38;62.49;99840.69;4916619;28;98487;-77
2021/09/16 07:24:56;;;;;;;14.90;13.05;;;;;;;23.25;62.62;99835.66;4915309;28;96663;-78
2021/09/16 07:27:21;;;;;;;13.88;12.48;;;;;;;23.26;62.57;99847.22;4932651;28;96864;-78
2021/09/16 07:29:47;;;;;;;13.30;11.95;;;;;;;23.24;62.67;99846.50;4914919;28;101014;-77
2021/09/16 07:32:12;;;;;;;18.75;14.02;;;;;;;23.27;62.54;99849.75;4931022;28;98132;-78
2021/09/16 07:34:38;;;;;;;15.20;12.90;;;;;;;23.65;61.87;99852.44;4931200;28;96798;-74
2021/09/16 07:37:05;;;;;;;15.48;12.80;;;;;;;23.80;61.44;99856.34;4915280;28;96839;-74
2021/09/16 07:39:31;;;;;;;15.10;13.60;;;;;;;23.91;60.84;99852.63;4914518;28;101627;-76
2021/09/16 07:41:56;;;;;;;17.13;13.63;;;;;;;24.11;60.36;99851.50;4914388;28;100984;-76
2021/09/16 07:44:22;;;;;;;14.18;12.75;;;;;;;24.14;60.18;99848.56;4915190;28;96593;-74
2021/09/16 07:46:47;;;;;;;14.13;12.70;;;;;;;24.15;60.54;99855.59;4915782;28;96922;-73
2021/09/16 07:49:13;;;;;;;14.20;12.82;;;;;;;24.07;60.50;99854.66;4914812;28;99710;-74
2021/09/16 07:51:38;;;;;;;14.77;13.30;;;;;;;24.03;60.92;99853.25;4914734;28;97417;-76
2021/09/16 07:54:04;;;;;;;17.60;12.57;;;;;;;23.94;60.69;99857.72;4914842;28;96601;-74
2021/09/16 07:56:30;;;;;;;14.10;11.93;;;;;;;24.00;60.70;99856.22;4916294;28;96904;-75
2021/09/16 07:58:55;;;;;;;13.38;11.98;;;;;;;24.02;60.81;99851.56;4929049;28;101650;-74
2021/09/16 08:01:21;;;;;;;13.60;12.20;;;;;;;24.07;60.68;99860.03;4914124;28;100793;-75
2021/09/16 08:03:47;;;;;;;11.93;10.57;;;;;;;23.97;60.58;99856.53;4914565;28;96628;-74
2021/09/16 08:06:13;;;;;;;13.63;12.27;;;;;;;23.98;60.58;99858.25;4914176;28;96890;-74
2021/09/16 08:08:39;;;;;;;13.93;11.48;;;;;;;23.94;60.67;99861.22;4930583;28;98401;-77
2021/09/16 08:11:05;;;;;;;12.82;11.57;;;;;;;23.94;60.63;99853.19;4898380;28;101446;-76
2021/09/16 08:13:31;;;;;;;11.52;9.88;;;;;;;24.03;60.91;99861.28;4930828;28;96644;-79
2021/09/16 08:15:56;;;;;;;13.75;10.15;;;;;;;24.11;60.82;99862.22;4898320;28;96843;-75
2021/09/16 08:18:22;;;;;;;18.25;10.93;;;;;;;24.25;60.03;99876.13;4914312;28;97680;-74
2021/09/16 08:20:49;;;;;;;13.57;10.80;;;;;;;24.47;59.80;99866.84;4897721;28;97909;-74
2021/09/16 08:23:17;;;;;;;16.40;11.75;;;;;;;24.50;60.18;99861.19;4898002;28;96584;-74
2021/09/16 08:25:42;;;;;;;12.55;9.90;;;;;;;24.51;60.22;99865.53;4930325;28;96754;-75
2021/09/16 08:28:08;;;;;;;14.25;10.65;;;;;;;24.51;60.11;99861.00;4898177;28;100896;-75
2021/09/16 08:30:34;;;;;;;15.52;9.98;;;;;;;24.61;59.86;99866.31;4913871;28;101348;-76
2021/09/16 08:32:59;;;;;;;13.63;9.35;;;;;;;24.63;59.47;99865.16;4898167;28;96587;-75
2021/09/16 08:35:25;;;;;;;13.50;9.68;;;;;;;24.71;59.22;99869.75;4914621;28;96623;-74
2021/09/16 08:37:51;;;;;;;10.48;9.20;;;;;;;24.66;59.71;99871.22;4898492;28;97541;-74
2021/09/16 08:40:17;;;;;;;9.77;8.38;;;;;;;24.68;59.32;99874.59;4882754;28;101162;-74
2021/09/16 08:42:43;;;;;;;10.68;8.88;;;;;;;24.67;59.23;99868.38;4930511;28;96578;-75
2021/09/16 08:45:14;;;;;;;9.50;8.52;;;;;;;24.66;59.59;99865.84;4929922;28;96942;-78
2021/09/16 08:47:41;;;;;;;10.32;8.65;;;;;;;24.63;59.53;99867.81;4929285;28;102194;-78
2021/09/16 08:50:08;;;;;;;13.13;7.95;;;;;;;24.55;59.34;99869.59;4881739;28;101088;-79
2021/09/16 08:52:37;;;;;;;12.40;9.13;;;;;;;24.52;59.31;99870.78;4881768;28;96600;-76
2021/09/16 08:55:08;;;;;;;12.93;9.98;;;;;;;24.37;59.32;99866.88;4913315;28;96932;-79
2021/09/16 08:57:37;;;;;;;9.95;8.95;;;;;;;24.32;59.70;99855.78;4913649;28;100899;-78
2021/09/16 09:00:05;;;;;;;11.25;9.10;;;;;;;24.29;59.96;99864.09;4896849;28;101151;-78
2021/09/16 09:02:31;;;;;;;9.30;8.50;;;;;;;24.20;60.30;99871.22;4898275;28;96714;-77
2021/09/16 09:04:57;;;;;;;9.95;8.88;;;;;;;24.18;60.24;99873.22;4882409;28;96937;-79
2021/09/16 09:07:23;;;;;;;11.50;9.38;;;;;;;24.10;60.37;99873.13;4929758;28;101296;-79
2021/09/16 09:09:49;;;;;;;14.88;9.55;;;;;;;23.90;61.18;99869.69;4929946;28;97900;-79
2021/09/16 09:12:15;;;;;;;9.38;8.57;;;;;;;23.86;61.36;99873.69;4897565;28;96569;-79
2021/09/16 09:14:44;;;;;;;9.23;8.30;;;;;;;23.88;61.06;99869.00;4929749;28;96854;-73
2021/09/16 09:17:18;;;;;;;9.23;8.50;;;;;;;23.82;61.24;99866.91;4929777;28;101213;-73
2021/09/16 09:19:45;;;;;;;8.68;7.70;;;;;;;23.83;61.32;99872.13;4914104;28;100740;-74
2021/09/16 09:22:11;;;;;;;8.70;7.25;;;;;;;23.86;61.26;99877.19;4933398;28;96610;-75
2021/09/16 09:24:42;;;;;;;8.57;7.80;;;;;;;23.82;61.15;99869.59;4933586;28;96775;-76
2021/09/16 09:27:20;;;;;;;8.07;7.40;;;;;;;23.79;61.31;99878.75;4916989;28;97599;-75
2021/09/16 09:30:03;;;;;;;9.10;8.05;;;;;;;23.78;61.28;99871.72;4933090;28;101268;-75
2021/09/16 09:32:55;;;;;;;9.48;7.32;;;;;;;23.84;61.26;99873.81;4917146;28;96536;-75
2021/09/16 09:35:26;;;;;;;8.45;7.68;;;;;;;23.98;61.29;99866.28;4918022;28;96556;-75
2021/09/16 09:37:52;;;;;;;8.50;7.47;;;;;;;24.07;61.10;99870.75;4916441;28;101549;-75
2021/09/16 09:40:31;;;;;;;8.30;7.57;;;;;;;24.04;61.10;99863.84;4933440;28;97328;-76
2021/09/16 09:43:26;;;;;;;10.90;8.60;;;;;;;24.02;61.56;99868.50;4917388;28;96654;-74
2021/09/16 09:46:14;;;;;;;9.25;8.45;;;;;;;24.15;61.33;99868.16;4932436;28;96960;-73
2021/09/16 09:49:01;;;;;;;8.75;7.97;;;;;;;24.10;61.08;99871.28;4933120;28;97735;-74
2021/09/16 09:51:57;;;;;;;10.02;8.32;;;;;;;24.08;60.94;99867.91;4884728;28;101243;-74
2021/09/16 09:54:40;;;;;;;8.38;7.68;;;;;;;24.14;60.57;99864.66;4916416;28;96574;-73
2021/09/16 09:57:06;;;;;;;8.05;7.35;;;;;;;24.22;60.36;99868.41;4917229;28;96933;-76
2021/09/16 09:59:51;;;;;;;7.85;7.13;;;;;;;24.25;60.14;99862.72;4900127;28;100925;-75
2021/09/16 10:02:16;;;;;;;8.75;7.95;;;;;;;24.32;60.02;99858.47;4918072;28;97560;-74
2021/09/16 10:04:43;;;;;;;8.95;8.15;;;;;;;24.51;59.33;99866.38;4900445;28;96571;-74
2021/09/16 10:07:08;;;;;;;11.73;8.20;;;;;;;24.61;59.01;99861.78;4933071;28;96809;-73
2021/09/16 10:09:34;;;;;;;8.82;8.13;;;;;;;24.67;58.76;99859.47;4916715;28;97640;-75
2021/09/16 10:12:00;;;;;;;8.23;7.53;;;;;;;24.78;58.46;99864.59;4900779;28;97908;-73
2021/09/16 10:14:26;;;;;;;8.68;7.97;;;;;;;24.76;58.25;99856.72;4900605;28;96811;-74
2021/09/16 10:16:52;;;;;;;9.65;8.80;;;;;;;24.78;58.36;99862.78;4916504;28;96911;-74
2021/09/16 10:19:18;;;;;;;9.38;8.60;;;;;;;24.65;58.91;99865.00;4932099;28;100959;-75
2021/09/16 10:21:44;;;;;;;10.38;9.35;;;;;;;24.59;59.34;99865.63;4900175;28;98922;-74
2021/09/16 10:24:13;;;;;;;8.80;8.20;;;;;;;24.53;59.37;99866.25;4932666;28;96583;-74
2021/09/16 10:26:45;;;;;;;8.35;7.65;;;;;;;24.51;59.26;99873.59;4900170;28;96761;-73
2021/09/16 10:29:28;;;;;;;8.32;7.43;;;;;;;24.53;59.05;99868.91;4931541;28;101389;-74
2021/09/16 10:32:06;;;;;;;8.65;7.78;;;;;;;24.40;59.28;99866.56;4930547;28;101054;-77
2021/09/16 10:34:59;;;;;;;7.85;7.15;;;;;;;24.28;59.45;99860.59;4900113;28;96657;-77
2021/09/16 10:37:34;;;;;;;7.18;6.70;;;;;;;24.25;59.90;99863.56;4885139;28;96749;-77
2021/09/16 10:40:00;;;;;;;8.43;7.75;;;;;;;24.32;59.98;99869.19;4883873;28;101350;-77
2021/09/16 10:42:58;;;;;;;9.05;7.57;;;;;;;24.26;60.58;99881.38;4931647;28;101384;-78
2021/09/16 10:45:37;;;;;;;8.98;8.27;;;;;;;24.14;61.10;99867.31;4915701;28;96704;-77
2021/09/16 10:48:15;;;;;;;8.55;7.75;;;;;;;24.03;61.71;99874.69;4932525;28;96786;-75
2021/09/16 10:50:49;;;;;;;7.72;7.20;;;;;;;23.90;62.16;99872.38;4917218;28;97917;-76
2021/09/16 10:53:36;;;;;;;7.88;7.18;;;;;;;23.65;63.33;99884.56;4932219;28;97865;-74
2021/09/16 10:56:06;;;;;;;8.30;7.70;;;;;;;23.65;63.89;99884.56;4931928;28;96563;-74
2021/09/16 10:58:32;;;;;;;8.35;7.75;;;;;;;23.57;64.77;99881.81;4882915;28;96942;-74
2021/09/16 11:00:58;;;;;;;8.52;7.90;;;;;;;23.58;64.96;99883.47;4899725;28;101387;-77
2021/09/16 11:03:23;;;;;;;7.78;7.25;;;;;;;23.53;65.52;99888.44;4899789;28;101459;-74
2021/09/16 11:05:55;;;;;;;8.50;7.72;;;;;;;23.41;66.14;99890.44;4883990;28;96717;-74
2021/09/16 11:08:22;;;;;;;10.32;7.97;;;;;;;23.48;65.71;99889.72;4884044;28;97097;-76
2021/09/16 11:10:50;;;;;;;8.55;7.85;;;;;;;23.46;65.72;99894.38;4931484;28;101371;-74
2021/09/16 11:13:42;;;;;;;9.23;8.38;;;;;;;23.35;65.48;99899.06;4931968;28;101057;-75
2021/09/16 11:16:09;;;;;;;8.40;7.80;;;;;;;23.33;65.40;99893.00;4897888;28;96907;-74
2021/09/16 11:18:34;;;;;;;8.60;7.90;;;;;;;23.25;65.57;99899.94;4931845;28;96826;-77